createdAt,value
2022-10-23T00:02:06.756Z,11.14
2022-10-23T00:07:09.592Z,11.10
2022-10-23T00:12:13.746Z,11.04
2022-10-23T00:17:16.585Z,11.02
2022-10-23T00:22:19.384Z,10.99
2022-10-23T00:27:23.330Z,10.98
2022-10-23T00:32:26.848Z,11.04
2022-10-23T00:37:29.913Z,11.01
2022-10-23T00:42:34.818Z,10.96
2022-10-23T00:47:37.758Z,10.98
2022-10-23T00:52:46.362Z,10.94
2022-10-23T00:57:52.365Z,10.94
2022-10-23T01:02:57.545Z,10.88
2022-10-23T01:08:07.913Z,10.86
2022-10-23T01:13:17.988Z,10.83
2022-10-23T01:18:28.681Z,10.78
2022-10-23T01:23:48.810Z,10.76
2022-10-23T01:28:57.548Z,10.74
2022-10-23T01:34:09.249Z,10.71
2022-10-23T01:39:16.144Z,10.69
2022-10-23T01:44:26.326Z,10.69
2022-10-23T01:49:30.642Z,10.71
2022-10-23T01:54:40.447Z,10.66
2022-10-23T01:59:49.218Z,10.63
2022-10-23T02:04:59.981Z,10.68
2022-10-23T02:10:04.401Z,10.65
2022-10-23T02:15:14.206Z,10.60
2022-10-23T02:20:23.623Z,10.59
2022-10-23T02:25:34.586Z,10.54
2022-10-23T02:30:46.032Z,10.54
2022-10-23T02:35:50.005Z,10.51
2022-10-23T02:41:10.815Z,10.45
2022-10-23T02:46:25.085Z,10.43
2022-10-23T02:51:35.382Z,10.36
2022-10-23T02:56:45.509Z,10.45
2022-10-23T03:01:54.182Z,10.46
2022-10-23T03:06:57.961Z,10.42
2022-10-23T03:12:00.974Z,10.39
2022-10-23T03:17:11.201Z,10.41
2022-10-23T03:22:14.175Z,10.41
2022-10-23T03:27:17.405Z,10.43
2022-10-23T03:32:21.625Z,10.42
2022-10-23T03:37:24.791Z,10.32
2022-10-23T03:42:27.721Z,10.41
2022-10-23T03:47:35.198Z,10.40
2022-10-23T03:52:38.598Z,10.38
2022-10-23T03:57:41.514Z,10.39
2022-10-23T04:02:46.178Z,10.40
2022-10-23T04:07:49.458Z,10.30
2022-10-23T04:12:52.322Z,10.34
2022-10-23T04:17:56.605Z,10.32
2022-10-23T04:22:59.475Z,10.29
2022-10-23T04:28:02.288Z,10.30
2022-10-23T04:33:10.914Z,10.29
2022-10-23T04:38:13.845Z,10.28
2022-10-23T04:43:16.935Z,10.33
2022-10-23T04:48:23.418Z,10.34
2022-10-23T04:53:47.206Z,10.29
2022-10-23T04:59:14.968Z,10.22
2022-10-23T05:04:20.495Z,10.27
2022-10-23T05:09:43.279Z,10.24
2022-10-23T05:15:12.497Z,10.33
2022-10-23T05:20:21.109Z,10.34
2022-10-23T05:25:23.955Z,10.32
2022-10-23T05:30:35.147Z,10.40
2022-10-23T05:35:42.463Z,10.39
2022-10-23T05:40:45.719Z,10.38
2022-10-23T05:45:53.437Z,10.35
2022-10-23T05:51:07.597Z,10.39
2022-10-23T05:56:21.675Z,10.33
2022-10-23T06:01:56.904Z,10.41
2022-10-23T06:07:26.825Z,10.37
2022-10-23T06:12:32.793Z,10.43
2022-10-23T06:17:36.045Z,10.42
2022-10-23T06:22:41.198Z,10.52
2022-10-23T06:27:58.867Z,10.55
2022-10-23T06:33:05.841Z,10.60
2022-10-23T06:38:11.340Z,10.67
2022-10-23T06:43:22.244Z,10.68
2022-10-23T06:48:51.833Z,10.87
2022-10-23T06:54:01.860Z,10.80
2022-10-23T06:59:23.209Z,11.11
2022-10-23T07:04:28.243Z,11.26
2022-10-23T07:09:32.849Z,11.46
2022-10-23T07:14:57.337Z,11.57
2022-10-23T07:20:00.318Z,11.72
2022-10-23T07:25:05.143Z,11.70
2022-10-23T07:30:14.252Z,11.65
2022-10-23T07:35:23.017Z,11.70
2022-10-23T07:40:32.973Z,11.93
2022-10-23T07:45:36.240Z,12.02
2022-10-23T07:50:46.985Z,12.23
2022-10-23T07:55:55.659Z,12.42
2022-10-23T08:01:02.434Z,12.44
2022-10-23T08:06:12.471Z,12.66
2022-10-23T08:11:20.390Z,12.92
2022-10-23T08:16:26.644Z,13.07
2022-10-23T08:21:47.656Z,13.31
2022-10-23T08:26:53.748Z,13.62
2022-10-23T08:31:59.595Z,13.70
2022-10-23T08:37:07.944Z,13.71
2022-10-23T08:42:21.442Z,13.76
2022-10-23T08:47:31.835Z,13.88
2022-10-23T08:53:04.067Z,13.85
2022-10-23T08:58:15.431Z,13.98
2022-10-23T09:03:18.969Z,14.27
2022-10-23T09:08:32.086Z,14.42
2022-10-23T09:14:04.549Z,14.35
2022-10-23T09:19:15.635Z,14.27
2022-10-23T09:24:22.006Z,14.39
2022-10-23T09:29:28.137Z,14.46
2022-10-23T09:34:33.993Z,14.56
2022-10-23T09:39:37.782Z,14.54
2022-10-23T09:44:50.031Z,14.94
2022-10-23T09:49:57.419Z,15.62
2022-10-23T09:55:02.983Z,15.98
2022-10-23T10:00:16.862Z,16.03
2022-10-23T10:05:26.777Z,15.62
2022-10-23T10:10:36.936Z,15.94
2022-10-23T10:15:46.612Z,16.36
2022-10-23T10:20:58.712Z,16.35
2022-10-23T10:26:10.137Z,16.40
2022-10-23T10:31:20.933Z,16.67
2022-10-23T10:36:41.817Z,16.58
2022-10-23T10:41:53.956Z,16.43
2022-10-23T10:47:00.617Z,16.15
2022-10-23T10:52:19.432Z,16.47
2022-10-23T10:57:30.587Z,16.49
2022-10-23T11:02:41.419Z,16.51
2022-10-23T11:07:55.481Z,16.72
2022-10-23T11:12:58.636Z,16.70
2022-10-23T11:18:04.874Z,17.16
2022-10-23T11:23:35.804Z,17.54
2022-10-23T11:28:57.814Z,18.24
2022-10-23T11:34:15.555Z,17.88
2022-10-23T11:39:22.935Z,17.56
2022-10-23T11:44:43.809Z,17.55
2022-10-23T11:49:49.093Z,17.16
2022-10-23T11:55:03.352Z,17.16
2022-10-23T12:00:22.993Z,17.34
2022-10-23T12:05:32.650Z,17.48
2022-10-23T12:10:45.346Z,17.67
2022-10-23T12:15:57.165Z,17.38
2022-10-23T12:21:04.640Z,17.12
2022-10-23T12:26:39.686Z,16.86
2022-10-23T12:31:52.765Z,16.88
2022-10-23T12:37:07.783Z,16.82
2022-10-23T12:42:17.674Z,16.95
2022-10-23T12:47:22.335Z,16.98
2022-10-23T12:52:25.597Z,16.63
2022-10-23T12:57:31.337Z,16.45
2022-10-23T13:02:35.633Z,16.65
2022-10-23T13:07:45.381Z,16.47
2022-10-23T13:12:54.759Z,16.42
2022-10-23T13:18:07.001Z,16.22
2022-10-23T13:23:13.355Z,16.36
2022-10-23T13:28:25.447Z,16.52
2022-10-23T13:33:36.428Z,16.55
2022-10-23T13:38:40.894Z,17.01
2022-10-23T13:43:46.938Z,16.90
2022-10-23T13:48:51.062Z,17.04
2022-10-23T13:53:54.656Z,17.00
2022-10-23T13:58:57.464Z,17.03
2022-10-23T14:04:01.660Z,16.66
2022-10-23T14:09:05.620Z,16.68
2022-10-23T14:14:08.949Z,17.02
2022-10-23T14:19:13.441Z,17.58
2022-10-23T14:24:16.325Z,18.34
2022-10-23T14:29:24.161Z,18.50
2022-10-23T14:34:28.756Z,18.86
2022-10-23T14:39:31.751Z,18.56
2022-10-23T14:44:34.632Z,18.00
2022-10-23T14:49:40.282Z,18.06
2022-10-23T14:54:43.254Z,17.71
2022-10-23T14:59:46.009Z,17.51
2022-10-23T15:04:50.209Z,17.41
2022-10-23T15:09:52.973Z,17.09
2022-10-23T15:14:56.197Z,16.74
2022-10-23T15:20:01.071Z,16.59
2022-10-23T15:25:04.059Z,16.53
2022-10-23T15:30:09.562Z,16.39
2022-10-23T15:35:13.773Z,16.24
2022-10-23T15:40:16.739Z,16.22
2022-10-23T15:45:19.609Z,16.02
2022-10-23T15:50:24.060Z,15.88
2022-10-23T15:55:26.941Z,16.04
2022-10-23T16:00:29.823Z,16.03
2022-10-23T16:05:34.032Z,15.97
2022-10-23T16:10:39.964Z,15.81
2022-10-23T16:15:42.807Z,15.66
2022-10-23T16:20:47.345Z,15.73
2022-10-23T16:25:51.105Z,15.69
2022-10-23T16:30:53.917Z,15.65
2022-10-23T16:36:03.497Z,15.52
2022-10-23T16:41:07.196Z,15.39
2022-10-23T16:46:31.112Z,15.26
2022-10-23T16:51:35.728Z,15.28
2022-10-23T16:56:38.585Z,15.38
2022-10-23T17:01:41.561Z,15.24
2022-10-23T17:06:45.998Z,14.53
2022-10-23T17:11:51.048Z,14.31
2022-10-23T17:16:54.234Z,14.26
2022-10-23T17:21:59.159Z,14.27
2022-10-23T17:27:01.967Z,14.53
2022-10-23T17:32:05.139Z,14.73
2022-10-23T17:37:10.119Z,14.42
2022-10-23T17:42:13.056Z,14.04
2022-10-23T17:47:15.839Z,14.07
2022-10-23T17:52:20.009Z,14.09
2022-10-23T18:02:30.803Z,13.94
2022-10-23T18:07:35.014Z,13.97
2022-10-23T18:12:37.785Z,14.08
2022-10-23T18:17:40.689Z,14.13
2022-10-23T18:22:45.242Z,14.24
2022-10-23T18:27:48.168Z,14.26
2022-10-23T18:32:50.922Z,14.19
2022-10-23T18:37:55.082Z,14.05
2022-10-23T18:42:57.840Z,13.87
2022-10-23T18:48:01.473Z,13.80
2022-10-23T18:53:06.290Z,13.82
2022-10-23T18:58:09.074Z,13.79
2022-10-23T19:03:12.914Z,13.73
2022-10-23T19:08:17.065Z,13.86
2022-10-23T19:13:20.857Z,13.61
2022-10-23T19:18:23.709Z,13.53
2022-10-23T19:23:30.037Z,13.58
2022-10-23T19:28:37.557Z,13.67
2022-10-23T19:33:41.371Z,13.68
2022-10-23T19:38:45.536Z,13.63
2022-10-23T19:43:48.309Z,13.70
2022-10-23T19:48:51.090Z,13.75
2022-10-23T19:53:57.075Z,13.77
2022-10-23T19:58:59.889Z,13.82
2022-10-23T20:04:02.698Z,13.94
2022-10-23T20:09:09.790Z,14.07
2022-10-23T20:14:13.292Z,14.05
2022-10-23T20:24:27.308Z,14.16
2022-10-23T20:29:30.167Z,14.13
2022-10-23T20:34:33.005Z,14.09
2022-10-23T20:39:39.188Z,14.10
2022-10-23T20:44:41.955Z,14.12
2022-10-23T20:49:44.705Z,14.17
2022-10-23T20:54:51.792Z,14.11
2022-10-23T20:59:54.660Z,14.02
2022-10-23T21:04:57.393Z,14.13
2022-10-23T21:10:01.580Z,14.04
2022-10-23T21:15:04.653Z,13.90
2022-10-23T21:20:08.266Z,14.00
2022-10-23T21:25:12.405Z,13.94
2022-10-23T21:30:15.949Z,13.88
2022-10-23T21:35:18.742Z,13.81
2022-10-23T21:40:22.897Z,13.82
2022-10-23T21:45:26.459Z,13.86
2022-10-23T21:50:29.341Z,13.84
2022-10-23T21:55:33.477Z,13.82
2022-10-23T22:00:36.228Z,13.89
2022-10-23T22:05:38.973Z,13.99
2022-10-23T22:10:43.079Z,14.06
2022-10-23T22:15:46.055Z,14.11
2022-10-23T22:20:48.941Z,14.08
2022-10-23T22:25:53.081Z,14.08
2022-10-23T22:30:55.876Z,13.99
2022-10-23T22:36:02.823Z,14.09
2022-10-23T22:41:07.617Z,13.71
2022-10-23T22:46:12.550Z,13.54
2022-10-23T22:51:17.340Z,13.48
2022-10-23T22:56:23.372Z,13.49
2022-10-23T23:01:30.103Z,13.48
2022-10-23T23:06:34.138Z,13.49
2022-10-23T23:11:45.829Z,13.43
2022-10-23T23:16:55.017Z,13.31
2022-10-23T23:21:58.597Z,13.25
2022-10-23T23:27:02.731Z,13.20
2022-10-23T23:32:06.165Z,13.16
2022-10-23T23:37:08.941Z,13.11
2022-10-23T23:42:13.070Z,13.05
2022-10-23T23:47:15.888Z,13.00
2022-10-23T23:52:18.766Z,13.03
2022-10-23T23:57:22.872Z,13.03
